sensor_id;sensor_type;location;lat;lon;timestamp;pressure;altitude;pressure_sealevel;temperature;humidity
49529;BME280;35423;37.320;-121.762;2024-02-04T08:00:55;99047.05;;;14.71;33.22
49529;BME280;35423;37.320;-121.762;2024-02-04T08:03:21;99044.41;;;15.06;32.86
49529;BME280;35423;37.320;-121.762;2024-02-04T08:05:46;99033.71;;;16.25;32.45
49529;BME280;35423;37.320;-121.762;2024-02-04T08:08:15;99013.74;;;15.95;32.50
49529;BME280;35423;37.320;-121.762;2024-02-04T08:10:41;99023.30;;;16.13;32.95
49529;BME280;35423;37.320;-121.762;2024-02-04T08:13:09;99005.27;;;16.17;33.18
49529;BME280;35423;37.320;-121.762;2024-02-04T08:15:38;99015.54;;;16.54;33.28
49529;BME280;35423;37.320;-121.762;2024-02-04T08:18:09;99000.21;;;15.97;33.41
49529;BME280;35423;37.320;-121.762;2024-02-04T08:20:31;98987.92;;;16.62;33.00
49529;BME280;35423;37.320;-121.762;2024-02-04T08:22:59;98981.75;;;16.40;33.84
49529;BME280;35423;37.320;-121.762;2024-02-04T08:25:27;98983.14;;;16.26;33.56
49529;BME280;35423;37.320;-121.762;2024-02-04T08:27:51;98996.03;;;16.09;33.81
49529;BME280;35423;37.320;-121.762;2024-02-04T08:30:18;98984.06;;;16.25;33.61
49529;BME280;35423;37.320;-121.762;2024-02-04T08:32:46;98998.32;;;16.47;33.78
49529;BME280;35423;37.320;-121.762;2024-02-04T08:35:17;99018.56;;;15.25;33.56
49529;BME280;35423;37.320;-121.762;2024-02-04T08:37:43;98995.04;;;16.50;33.09
49529;BME280;35423;37.320;-121.762;2024-02-04T08:40:13;98979.47;;;16.39;33.44
49529;BME280;35423;37.320;-121.762;2024-02-04T08:42:42;98979.87;;;16.75;33.90
49529;BME280;35423;37.320;-121.762;2024-02-04T08:45:10;98958.61;;;16.56;33.86
49529;BME280;35423;37.320;-121.762;2024-02-04T08:47:35;98954.77;;;16.57;34.25
49529;BME280;35423;37.320;-121.762;2024-02-04T08:50:10;98950.32;;;16.24;34.41
49529;BME280;35423;37.320;-121.762;2024-02-04T08:52:38;98948.59;;;16.36;34.68
49529;BME280;35423;37.320;-121.762;2024-02-04T08:55:11;98940.42;;;15.70;34.72
49529;BME280;35423;37.320;-121.762;2024-02-04T08:57:38;98928.38;;;16.60;34.68
49529;BME280;35423;37.320;-121.762;2024-02-04T09:00:10;98925.81;;;16.00;34.83
49529;BME280;35423;37.320;-121.762;2024-02-04T09:02:35;98926.29;;;16.55;34.87
49529;BME280;35423;37.320;-121.762;2024-02-04T09:05:01;98925.85;;;15.86;34.56
49529;BME280;35423;37.320;-121.762;2024-02-04T09:07:29;98925.45;;;16.31;34.65
49529;BME280;35423;37.320;-121.762;2024-02-04T09:10:00;98905.83;;;16.42;34.52
49529;BME280;35423;37.320;-121.762;2024-02-04T09:12:27;98901.21;;;16.74;34.45
49529;BME280;35423;37.320;-121.762;2024-02-04T09:14:53;98888.32;;;16.73;34.78
49529;BME280;35423;37.320;-121.762;2024-02-04T09:17:22;98901.93;;;16.38;35.19
49529;BME280;35423;37.320;-121.762;2024-02-04T09:19:47;98898.12;;;16.50;35.00
49529;BME280;35423;37.320;-121.762;2024-02-04T09:22:12;98885.08;;;16.25;35.11
49529;BME280;35423;37.320;-121.762;2024-02-04T09:24:39;98878.61;;;16.19;35.19
49529;BME280;35423;37.320;-121.762;2024-02-04T09:27:05;98883.41;;;15.78;35.33
49529;BME280;35423;37.320;-121.762;2024-02-04T09:29:31;98879.91;;;16.17;35.31
49529;BME280;35423;37.320;-121.762;2024-02-04T09:31:58;98870.20;;;16.46;35.20
49529;BME280;35423;37.320;-121.762;2024-02-04T09:34:24;98858.47;;;16.25;35.69
49529;BME280;35423;37.320;-121.762;2024-02-04T09:36:49;98865.85;;;16.06;36.00
49529;BME280;35423;37.320;-121.762;2024-02-04T09:39:20;98869.47;;;15.53;35.98
49529;BME280;35423;37.320;-121.762;2024-02-04T09:41:50;98864.97;;;16.42;35.71
49529;BME280;35423;37.320;-121.762;2024-02-04T09:44:16;98862.11;;;15.28;36.11
49529;BME280;35423;37.320;-121.762;2024-02-04T09:46:49;98850.78;;;16.18;35.76
49529;BME280;35423;37.320;-121.762;2024-02-04T09:49:35;98869.53;;;16.15;34.97
49529;BME280;35423;37.320;-121.762;2024-02-04T09:52:08;98857.55;;;16.39;34.73
49529;BME280;35423;37.320;-121.762;2024-02-04T09:54:49;98845.52;;;16.45;34.14
49529;BME280;35423;37.320;-121.762;2024-02-04T09:57:13;98832.88;;;17.43;34.50
49529;BME280;35423;37.320;-121.762;2024-02-04T09:59:47;98823.16;;;16.36;35.05
49529;BME280;35423;37.320;-121.762;2024-02-04T10:02:14;98813.03;;;16.44;35.46
49529;BME280;35423;37.320;-121.762;2024-02-04T10:04:40;98773.54;;;16.18;35.81
49529;BME280;35423;37.320;-121.762;2024-02-04T10:07:05;98764.12;;;15.59;36.14
49529;BME280;35423;37.320;-121.762;2024-02-04T10:09:32;98788.45;;;16.13;36.50
49529;BME280;35423;37.320;-121.762;2024-02-04T10:12:07;98791.29;;;15.98;36.61
49529;BME280;35423;37.320;-121.762;2024-02-04T10:14:34;98804.26;;;16.25;36.77
49529;BME280;35423;37.320;-121.762;2024-02-04T10:17:00;98784.16;;;16.20;36.83
49529;BME280;35423;37.320;-121.762;2024-02-04T10:19:27;98785.36;;;15.78;36.88
49529;BME280;35423;37.320;-121.762;2024-02-04T10:21:59;98778.56;;;16.19;36.82
49529;BME280;35423;37.320;-121.762;2024-02-04T10:24:22;98786.94;;;16.22;36.38
49529;BME280;35423;37.320;-121.762;2024-02-04T10:26:45;98797.15;;;16.30;36.10
49529;BME280;35423;37.320;-121.762;2024-02-04T10:29:15;98813.73;;;16.13;35.83
49529;BME280;35423;37.320;-121.762;2024-02-04T10:31:42;98814.99;;;16.70;35.84
49529;BME280;35423;37.320;-121.762;2024-02-04T10:34:09;98808.74;;;16.16;35.67
49529;BME280;35423;37.320;-121.762;2024-02-04T10:36:36;98823.52;;;16.41;35.81
49529;BME280;35423;37.320;-121.762;2024-02-04T10:39:03;98830.39;;;16.44;36.20
49529;BME280;35423;37.320;-121.762;2024-02-04T10:41:30;98808.26;;;16.20;36.56
49529;BME280;35423;37.320;-121.762;2024-02-04T10:43:54;98781.90;;;15.92;36.63
49529;BME280;35423;37.320;-121.762;2024-02-04T10:46:23;98782.83;;;15.81;36.61
49529;BME280;35423;37.320;-121.762;2024-02-04T10:48:54;98785.95;;;15.81;36.67
49529;BME280;35423;37.320;-121.762;2024-02-04T10:51:15;98756.62;;;15.46;36.74
49529;BME280;35423;37.320;-121.762;2024-02-04T10:53:42;98733.64;;;15.45;36.77
49529;BME280;35423;37.320;-121.762;2024-02-04T10:56:16;98743.29;;;15.50;35.77
49529;BME280;35423;37.320;-121.762;2024-02-04T10:58:37;98750.42;;;16.50;35.17
49529;BME280;35423;37.320;-121.762;2024-02-04T11:01:05;98775.96;;;16.03;35.27
49529;BME280;35423;37.320;-121.762;2024-02-04T11:03:38;98772.28;;;16.07;35.25
49529;BME280;35423;37.320;-121.762;2024-02-04T11:06:06;98773.23;;;16.13;34.92
49529;BME280;35423;37.320;-121.762;2024-02-04T11:08:31;98770.68;;;16.06;34.58
49529;BME280;35423;37.320;-121.762;2024-02-04T11:10:56;98761.03;;;17.02;34.41
49529;BME280;35423;37.320;-121.762;2024-02-04T11:13:23;98732.90;;;16.08;35.08
49529;BME280;35423;37.320;-121.762;2024-02-04T11:15:49;98737.91;;;16.76;35.74
49529;BME280;35423;37.320;-121.762;2024-02-04T11:25:44;98758.75;;;16.29;36.81
49529;BME280;35423;37.320;-121.762;2024-02-04T11:28:12;98753.09;;;15.94;37.08
49529;BME280;35423;37.320;-121.762;2024-02-04T11:31:03;98744.81;;;15.83;36.70
49529;BME280;35423;37.320;-121.762;2024-02-04T11:33:42;98726.01;;;16.03;36.40
49529;BME280;35423;37.320;-121.762;2024-02-04T11:36:12;98745.53;;;16.29;36.37
49529;BME280;35423;37.320;-121.762;2024-02-04T11:38:36;98745.63;;;16.50;36.37
49529;BME280;35423;37.320;-121.762;2024-02-04T11:41:04;98754.60;;;16.49;36.63
49529;BME280;35423;37.320;-121.762;2024-02-04T11:43:39;98747.28;;;15.98;36.76
49529;BME280;35423;37.320;-121.762;2024-02-04T11:46:04;98703.36;;;16.32;36.49
49529;BME280;35423;37.320;-121.762;2024-02-04T11:48:38;98726.40;;;16.25;36.72
49529;BME280;35423;37.320;-121.762;2024-02-04T11:51:06;98716.55;;;15.74;36.57
49529;BME280;35423;37.320;-121.762;2024-02-04T11:53:39;98684.87;;;16.16;36.66
49529;BME280;35423;37.320;-121.762;2024-02-04T11:56:06;98664.61;;;15.77;36.54
49529;BME280;35423;37.320;-121.762;2024-02-04T11:58:37;98656.89;;;15.95;36.79
49529;BME280;35423;37.320;-121.762;2024-02-04T12:01:02;98679.27;;;16.56;36.89
49529;BME280;35423;37.320;-121.762;2024-02-04T12:03:32;98671.28;;;15.75;37.12
49529;BME280;35423;37.320;-121.762;2024-02-04T12:05:53;98692.31;;;16.08;37.13
49529;BME280;35423;37.320;-121.762;2024-02-04T12:08:21;98672.64;;;15.78;37.18
49529;BME280;35423;37.320;-121.762;2024-02-04T12:10:54;98662.51;;;16.34;37.07
49529;BME280;35423;37.320;-121.762;2024-02-04T12:13:20;98649.00;;;15.58;37.40
49529;BME280;35423;37.320;-121.762;2024-02-04T12:15:47;98644.92;;;15.94;37.61
49529;BME280;35423;37.320;-121.762;2024-02-04T12:18:15;98612.18;;;15.32;37.64
49529;BME280;35423;37.320;-121.762;2024-02-04T12:20:39;98613.24;;;15.69;37.43
49529;BME280;35423;37.320;-121.762;2024-02-04T12:23:11;98596.55;;;15.46;37.29
49529;BME280;35423;37.320;-121.762;2024-02-04T12:25:38;98581.01;;;16.35;36.92
49529;BME280;35423;37.320;-121.762;2024-02-04T12:28:11;98598.96;;;15.83;36.47
49529;BME280;35423;37.320;-121.762;2024-02-04T12:30:38;98614.63;;;16.85;36.23
49529;BME280;35423;37.320;-121.762;2024-02-04T12:33:07;98615.84;;;16.53;35.90
49529;BME280;35423;37.320;-121.762;2024-02-04T12:35:35;98628.04;;;16.68;35.50
49529;BME280;35423;37.320;-121.762;2024-02-04T12:38:01;98611.50;;;16.91;35.47
49529;BME280;35423;37.320;-121.762;2024-02-04T12:40:28;98622.88;;;16.69;35.17
49529;BME280;35423;37.320;-121.762;2024-02-04T12:42:55;98631.22;;;17.15;35.12
49529;BME280;35423;37.320;-121.762;2024-02-04T12:45:32;98632.78;;;17.04;35.03
49529;BME280;35423;37.320;-121.762;2024-02-04T12:48:02;98622.89;;;17.50;34.87
49529;BME280;35423;37.320;-121.762;2024-02-04T12:50:32;98583.15;;;16.67;34.94
49529;BME280;35423;37.320;-121.762;2024-02-04T12:53:07;98585.83;;;16.35;34.72
49529;BME280;35423;37.320;-121.762;2024-02-04T12:55:35;98535.97;;;17.35;34.39
49529;BME280;35423;37.320;-121.762;2024-02-04T12:58:06;98540.03;;;17.21;34.69
49529;BME280;35423;37.320;-121.762;2024-02-04T13:00:27;98567.72;;;17.05;35.02
49529;BME280;35423;37.320;-121.762;2024-02-04T13:02:52;98571.12;;;16.99;35.15
49529;BME280;35423;37.320;-121.762;2024-02-04T13:05:23;98562.49;;;16.72;35.54
49529;BME280;35423;37.320;-121.762;2024-02-04T13:07:53;98540.70;;;16.71;35.93
49529;BME280;35423;37.320;-121.762;2024-02-04T13:10:26;98527.95;;;16.77;36.04
49529;BME280;35423;37.320;-121.762;2024-02-04T13:12:46;98508.43;;;16.56;36.55
49529;BME280;35423;37.320;-121.762;2024-02-04T13:15:37;98504.72;;;16.65;36.59
49529;BME280;35423;37.320;-121.762;2024-02-04T13:18:01;98495.26;;;16.84;36.53
49529;BME280;35423;37.320;-121.762;2024-02-04T13:20:28;98491.10;;;16.50;36.64
49529;BME280;35423;37.320;-121.762;2024-02-04T13:22:54;98481.03;;;16.45;36.57
49529;BME280;35423;37.320;-121.762;2024-02-04T13:25:20;98447.44;;;16.36;36.30
49529;BME280;35423;37.320;-121.762;2024-02-04T13:27:46;98458.68;;;16.67;35.99
49529;BME280;35423;37.320;-121.762;2024-02-04T13:30:12;98442.25;;;16.91;35.46
49529;BME280;35423;37.320;-121.762;2024-02-04T13:32:37;98434.16;;;17.28;35.23
49529;BME280;35423;37.320;-121.762;2024-02-04T13:35:14;98392.00;;;17.09;34.93
49529;BME280;35423;37.320;-121.762;2024-02-04T13:37:41;98392.50;;;17.29;34.88
49529;BME280;35423;37.320;-121.762;2024-02-04T13:40:12;98432.58;;;17.20;34.52
49529;BME280;35423;37.320;-121.762;2024-02-04T13:42:39;98432.02;;;17.41;34.32
49529;BME280;35423;37.320;-121.762;2024-02-04T13:45:10;98444.93;;;17.17;34.20
49529;BME280;35423;37.320;-121.762;2024-02-04T13:47:37;98439.55;;;17.64;34.12
49529;BME280;35423;37.320;-121.762;2024-02-04T13:50:00;98434.47;;;17.56;34.17
49529;BME280;35423;37.320;-121.762;2024-02-04T13:52:26;98411.83;;;17.27;34.32
49529;BME280;35423;37.320;-121.762;2024-02-04T13:54:53;98411.45;;;17.43;34.81
49529;BME280;35423;37.320;-121.762;2024-02-04T13:57:19;98433.36;;;16.93;35.29
49529;BME280;35423;37.320;-121.762;2024-02-04T13:59:55;98411.38;;;17.21;35.55
49529;BME280;35423;37.320;-121.762;2024-02-04T14:02:22;98409.68;;;16.75;35.58
49529;BME280;35423;37.320;-121.762;2024-02-04T14:05:01;98396.04;;;16.23;35.40
49529;BME280;35423;37.320;-121.762;2024-02-04T14:07:27;98377.84;;;16.82;35.25
49529;BME280;35423;37.320;-121.762;2024-02-04T14:09:52;98329.71;;;17.06;34.77
49529;BME280;35423;37.320;-121.762;2024-02-04T14:12:32;98357.45;;;17.24;35.34
49529;BME280;35423;37.320;-121.762;2024-02-04T14:15:01;98347.65;;;16.01;35.72
49529;BME280;35423;37.320;-121.762;2024-02-04T14:17:56;98348.21;;;17.17;35.93
49529;BME280;35423;37.320;-121.762;2024-02-04T14:20:26;98328.27;;;16.90;35.91
49529;BME280;35423;37.320;-121.762;2024-02-04T14:22:57;98334.97;;;16.72;36.06
49529;BME280;35423;37.320;-121.762;2024-02-04T14:25:24;98342.77;;;16.86;36.17
49529;BME280;35423;37.320;-121.762;2024-02-04T14:27:52;98332.10;;;16.29;37.06
49529;BME280;35423;37.320;-121.762;2024-02-04T14:30:20;98309.56;;;16.37;37.68
49529;BME280;35423;37.320;-121.762;2024-02-04T14:32:46;98319.79;;;16.29;38.35
49529;BME280;35423;37.320;-121.762;2024-02-04T14:35:11;98286.52;;;15.54;38.78
49529;BME280;35423;37.320;-121.762;2024-02-04T14:37:37;98303.87;;;15.57;39.03
49529;BME280;35423;37.320;-121.762;2024-02-04T14:40:02;98293.17;;;15.46;38.77
49529;BME280;35423;37.320;-121.762;2024-02-04T14:42:28;98303.72;;;15.99;38.67
49529;BME280;35423;37.320;-121.762;2024-02-04T14:44:57;98293.60;;;15.91;38.57
49529;BME280;35423;37.320;-121.762;2024-02-04T14:47:24;98290.87;;;16.08;38.47
49529;BME280;35423;37.320;-121.762;2024-02-04T14:49:54;98275.49;;;16.11;38.38
49529;BME280;35423;37.320;-121.762;2024-02-04T14:52:26;98303.44;;;16.12;38.28
49529;BME280;35423;37.320;-121.762;2024-02-04T14:55:04;98310.66;;;15.60;38.12
49529;BME280;35423;37.320;-121.762;2024-02-04T14:57:28;98295.13;;;16.03;38.35
49529;BME280;35423;37.320;-121.762;2024-02-04T14:59:54;98297.79;;;16.01;38.85
49529;BME280;35423;37.320;-121.762;2024-02-04T15:02:25;98278.85;;;15.66;39.70
49529;BME280;35423;37.320;-121.762;2024-02-04T15:04:46;98267.27;;;15.77;40.20
49529;BME280;35423;37.320;-121.762;2024-02-04T15:07:19;98280.80;;;15.66;40.44
49529;BME280;35423;37.320;-121.762;2024-02-04T15:09:43;98284.43;;;15.55;40.70
49529;BME280;35423;37.320;-121.762;2024-02-04T15:12:11;98312.79;;;15.12;41.11
49529;BME280;35423;37.320;-121.762;2024-02-04T15:14:38;98286.45;;;15.53;41.16
49529;BME280;35423;37.320;-121.762;2024-02-04T15:17:12;98235.95;;;15.50;41.12
49529;BME280;35423;37.320;-121.762;2024-02-04T15:19:37;98260.78;;;15.54;42.15
49529;BME280;35423;37.320;-121.762;2024-02-04T15:22:05;98277.58;;;15.30;41.13
49529;BME280;35423;37.320;-121.762;2024-02-04T15:24:42;98251.54;;;15.59;41.01
49529;BME280;35423;37.320;-121.762;2024-02-04T15:27:08;98258.64;;;15.59;41.16
49529;BME280;35423;37.320;-121.762;2024-02-04T15:29:37;98243.03;;;15.47;41.33
49529;BME280;35423;37.320;-121.762;2024-02-04T15:32:04;98242.53;;;14.91;41.45
49529;BME280;35423;37.320;-121.762;2024-02-04T15:34:40;98244.03;;;15.80;41.19
49529;BME280;35423;37.320;-121.762;2024-02-04T15:37:07;98238.42;;;15.10;41.04
49529;BME280;35423;37.320;-121.762;2024-02-04T15:39:33;98267.65;;;15.80;40.64
49529;BME280;35423;37.320;-121.762;2024-02-04T15:42:01;98279.01;;;15.96;40.28
49529;BME280;35423;37.320;-121.762;2024-02-04T15:44:32;98240.40;;;15.76;40.12
49529;BME280;35423;37.320;-121.762;2024-02-04T15:46:55;98261.14;;;15.82;40.38
49529;BME280;35423;37.320;-121.762;2024-02-04T15:49:28;98199.65;;;15.92;40.45
49529;BME280;35423;37.320;-121.762;2024-02-04T15:51:54;98230.70;;;16.00;40.48
49529;BME280;35423;37.320;-121.762;2024-02-04T15:54:23;98233.65;;;15.96;40.27
49529;BME280;35423;37.320;-121.762;2024-02-04T15:56:54;98244.89;;;15.91;40.34
49529;BME280;35423;37.320;-121.762;2024-02-04T15:59:14;98233.38;;;15.98;40.13
49529;BME280;35423;37.320;-121.762;2024-02-04T16:01:41;98224.16;;;15.93;40.18
49529;BME280;35423;37.320;-121.762;2024-02-04T16:04:12;98217.45;;;15.67;39.94
49529;BME280;35423;37.320;-121.762;2024-02-04T16:06:38;98197.25;;;16.28;39.83
49529;BME280;35423;37.320;-121.762;2024-02-04T16:09:05;98216.66;;;15.41;39.86
49529;BME280;35423;37.320;-121.762;2024-02-04T16:11:52;98234.95;;;16.29;39.94
49529;BME280;35423;37.320;-121.762;2024-02-04T16:14:09;98232.97;;;15.50;40.37
49529;BME280;35423;37.320;-121.762;2024-02-04T16:16:36;98236.09;;;16.43;39.73
49529;BME280;35423;37.320;-121.762;2024-02-04T16:19:01;98228.26;;;16.23;39.69
49529;BME280;35423;37.320;-121.762;2024-02-04T16:21:26;98224.14;;;16.24;39.85
49529;BME280;35423;37.320;-121.762;2024-02-04T16:23:53;98224.62;;;15.56;39.96
49529;BME280;35423;37.320;-121.762;2024-02-04T16:26:21;98192.95;;;15.79;39.98
49529;BME280;35423;37.320;-121.762;2024-02-04T16:28:48;98227.57;;;15.76;40.16
49529;BME280;35423;37.320;-121.762;2024-02-04T16:31:13;98240.62;;;15.61;40.31
49529;BME280;35423;37.320;-121.762;2024-02-04T16:33:39;98224.67;;;15.38;40.70
49529;BME280;35423;37.320;-121.762;2024-02-04T16:36:07;98220.04;;;16.03;40.72
49529;BME280;35423;37.320;-121.762;2024-02-04T16:38:42;98198.76;;;15.95;41.10
49529;BME280;35423;37.320;-121.762;2024-02-04T16:41:10;98218.31;;;15.92;40.92
49529;BME280;35423;37.320;-121.762;2024-02-04T16:43:38;98199.24;;;15.79;40.84
49529;BME280;35423;37.320;-121.762;2024-02-04T16:46:00;98199.24;;;16.28;40.64
49529;BME280;35423;37.320;-121.762;2024-02-04T16:48:27;98210.37;;;15.01;40.60
49529;BME280;35423;37.320;-121.762;2024-02-04T16:50:52;98199.18;;;16.36;40.36
49529;BME280;35423;37.320;-121.762;2024-02-04T16:53:24;98203.93;;;15.63;40.94
49529;BME280;35423;37.320;-121.762;2024-02-04T16:55:52;98208.94;;;16.03;41.11
49529;BME280;35423;37.320;-121.762;2024-02-04T16:58:26;98144.18;;;16.15;41.67
49529;BME280;35423;37.320;-121.762;2024-02-04T17:00:56;98193.27;;;15.87;42.02
49529;BME280;35423;37.320;-121.762;2024-02-04T17:03:27;98200.14;;;15.18;42.14
49529;BME280;35423;37.320;-121.762;2024-02-04T17:06:02;98191.91;;;16.17;41.41
49529;BME280;35423;37.320;-121.762;2024-02-04T17:08:21;98193.53;;;15.80;41.12
49529;BME280;35423;37.320;-121.762;2024-02-04T17:10:45;98161.49;;;16.46;40.65
49529;BME280;35423;37.320;-121.762;2024-02-04T17:13:14;98166.75;;;15.82;40.78
49529;BME280;35423;37.320;-121.762;2024-02-04T17:15:38;98177.83;;;16.61;40.64
49529;BME280;35423;37.320;-121.762;2024-02-04T17:18:38;98145.60;;;15.95;41.19
49529;BME280;35423;37.320;-121.762;2024-02-04T17:21:00;98144.79;;;16.34;41.38
49529;BME280;35423;37.320;-121.762;2024-02-04T17:23:26;98132.39;;;16.06;41.42
49529;BME280;35423;37.320;-121.762;2024-02-04T17:25:58;98138.04;;;16.34;41.49
49529;BME280;35423;37.320;-121.762;2024-02-04T17:28:28;98131.89;;;15.61;41.45
49529;BME280;35423;37.320;-121.762;2024-02-04T17:30:45;98152.93;;;16.26;41.38
49529;BME280;35423;37.320;-121.762;2024-02-04T17:33:11;98129.67;;;15.68;41.23
49529;BME280;35423;37.320;-121.762;2024-02-04T17:35:37;98135.01;;;16.54;41.08
49529;BME280;35423;37.320;-121.762;2024-02-04T17:38:11;98110.53;;;16.02;41.10
49529;BME280;35423;37.320;-121.762;2024-02-04T17:40:35;98088.15;;;17.04;40.72
49529;BME280;35423;37.320;-121.762;2024-02-04T17:43:02;98113.67;;;16.48;40.70
49529;BME280;35423;37.320;-121.762;2024-02-04T17:45:33;98137.39;;;16.86;40.30
49529;BME280;35423;37.320;-121.762;2024-02-04T17:47:53;98128.35;;;16.53;40.59
49529;BME280;35423;37.320;-121.762;2024-02-04T17:50:22;98109.34;;;17.03;40.13
49529;BME280;35423;37.320;-121.762;2024-02-04T17:52:49;98102.96;;;16.32;40.48
49529;BME280;35423;37.320;-121.762;2024-02-04T17:55:19;98115.50;;;16.88;40.32
49529;BME280;35423;37.320;-121.762;2024-02-04T17:57:45;98126.75;;;16.35;40.38
49529;BME280;35423;37.320;-121.762;2024-02-04T18:00:19;98118.61;;;16.71;40.30
49529;BME280;35423;37.320;-121.762;2024-02-04T18:02:48;98094.52;;;16.72;40.52
49529;BME280;35423;37.320;-121.762;2024-02-04T18:05:16;98151.48;;;16.86;40.50
49529;BME280;35423;37.320;-121.762;2024-02-04T18:07:42;98153.00;;;16.72;40.43
49529;BME280;35423;37.320;-121.762;2024-02-04T18:10:10;98177.33;;;17.08;40.16
49529;BME280;35423;37.320;-121.762;2024-02-04T18:12:35;98146.18;;;16.97;40.36
49529;BME280;35423;37.320;-121.762;2024-02-04T18:15:01;98128.04;;;16.04;40.75
49529;BME280;35423;37.320;-121.762;2024-02-04T18:17:29;98120.49;;;16.98;40.84
49529;BME280;35423;37.320;-121.762;2024-02-04T18:19:55;98102.24;;;16.65;40.80
49529;BME280;35423;37.320;-121.762;2024-02-04T18:22:20;98106.36;;;16.82;40.65
49529;BME280;35423;37.320;-121.762;2024-02-04T18:25:02;98106.48;;;16.53;40.30
49529;BME280;35423;37.320;-121.762;2024-02-04T18:27:27;98122.36;;;17.01;40.37
49529;BME280;35423;37.320;-121.762;2024-02-04T18:29:54;98128.99;;;16.85;40.81
49529;BME280;35423;37.320;-121.762;2024-02-04T18:32:19;98136.43;;;17.07;40.96
49529;BME280;35423;37.320;-121.762;2024-02-04T18:35:02;98132.91;;;16.54;40.81
49529;BME280;35423;37.320;-121.762;2024-02-04T18:37:34;98113.62;;;17.07;40.47
49529;BME280;35423;37.320;-121.762;2024-02-04T18:40:00;98082.87;;;17.56;39.80
49529;BME280;35423;37.320;-121.762;2024-02-04T18:42:27;98140.93;;;17.22;39.72
49529;BME280;35423;37.320;-121.762;2024-02-04T18:44:53;98159.02;;;17.30;39.26
49529;BME280;35423;37.320;-121.762;2024-02-04T18:47:19;98165.07;;;17.13;39.78
49529;BME280;35423;37.320;-121.762;2024-02-04T18:49:50;98166.26;;;17.86;39.64
49529;BME280;35423;37.320;-121.762;2024-02-04T18:52:18;98152.54;;;17.42;39.85
49529;BME280;35423;37.320;-121.762;2024-02-04T18:54:47;98119.66;;;17.88;39.35
49529;BME280;35423;37.320;-121.762;2024-02-04T18:57:14;98161.68;;;17.81;39.62
49529;BME280;35423;37.320;-121.762;2024-02-04T18:59:41;98155.20;;;17.93;39.48
49529;BME280;35423;37.320;-121.762;2024-02-04T19:02:07;98168.66;;;17.73;39.83
49529;BME280;35423;37.320;-121.762;2024-02-04T19:04:40;98169.32;;;17.81;39.99
49529;BME280;35423;37.320;-121.762;2024-02-04T19:07:04;98144.19;;;17.93;40.00
49529;BME280;35423;37.320;-121.762;2024-02-04T19:09:28;98133.45;;;17.56;39.89
49529;BME280;35423;37.320;-121.762;2024-02-04T19:11:57;98146.83;;;18.40;39.96
49529;BME280;35423;37.320;-121.762;2024-02-04T19:14:27;98144.71;;;18.00;39.78
49529;BME280;35423;37.320;-121.762;2024-02-04T19:16:53;98155.77;;;18.01;39.59
49529;BME280;35423;37.320;-121.762;2024-02-04T19:19:18;98138.14;;;17.73;39.53
49529;BME280;35423;37.320;-121.762;2024-02-04T19:21:50;98140.05;;;18.05;39.37
49529;BME280;35423;37.320;-121.762;2024-02-04T19:24:16;98126.51;;;17.69;39.38
49529;BME280;35423;37.320;-121.762;2024-02-04T19:26:45;98153.86;;;18.10;39.74
49529;BME280;35423;37.320;-121.762;2024-02-04T19:29:10;98158.84;;;17.52;40.02
49529;BME280;35423;37.320;-121.762;2024-02-04T19:31:35;98137.93;;;17.97;40.19
49529;BME280;35423;37.320;-121.762;2024-02-04T19:34:02;98095.78;;;17.92;40.04
49529;BME280;35423;37.320;-121.762;2024-02-04T19:36:36;98083.26;;;18.53;39.42
49529;BME280;35423;37.320;-121.762;2024-02-04T19:39:02;98078.87;;;18.32;38.99
49529;BME280;35423;37.320;-121.762;2024-02-04T19:41:27;98064.90;;;18.74;38.56
49529;BME280;35423;37.320;-121.762;2024-02-04T19:43:53;98059.93;;;18.96;38.42
49529;BME280;35423;37.320;-121.762;2024-02-04T19:46:19;98036.58;;;18.74;38.58
49529;BME280;35423;37.320;-121.762;2024-02-04T19:48:45;98026.23;;;18.19;39.06
49529;BME280;35423;37.320;-121.762;2024-02-04T19:51:11;98041.86;;;18.25;38.81
49529;BME280;35423;37.320;-121.762;2024-02-04T19:53:36;98020.95;;;17.74;39.02
49529;BME280;35423;37.320;-121.762;2024-02-04T19:56:03;98046.30;;;18.01;38.93
49529;BME280;35423;37.320;-121.762;2024-02-04T19:58:33;98054.72;;;18.11;39.14
49529;BME280;35423;37.320;-121.762;2024-02-04T20:01:00;98064.80;;;18.50;39.07
49529;BME280;35423;37.320;-121.762;2024-02-04T20:03:33;98092.61;;;17.78;39.46
49529;BME280;35423;37.320;-121.762;2024-02-04T20:05:56;98084.78;;;18.81;39.28
49529;BME280;35423;37.320;-121.762;2024-02-04T20:08:30;98075.25;;;18.35;39.26
49529;BME280;35423;37.320;-121.762;2024-02-04T20:10:57;98096.76;;;18.83;39.26
49529;BME280;35423;37.320;-121.762;2024-02-04T20:13:25;98109.98;;;17.72;39.71
49529;BME280;35423;37.320;-121.762;2024-02-04T20:15:52;98110.51;;;19.09;39.46
49529;BME280;35423;37.320;-121.762;2024-02-04T20:18:22;98104.95;;;17.82;39.64
49529;BME280;35423;37.320;-121.762;2024-02-04T20:20:47;98068.62;;;19.09;39.12
49529;BME280;35423;37.320;-121.762;2024-02-04T20:23:21;98042.12;;;18.23;39.21
49529;BME280;35423;37.320;-121.762;2024-02-04T20:25:48;98030.13;;;19.06;38.91
49529;BME280;35423;37.320;-121.762;2024-02-04T20:28:17;98044.37;;;18.06;39.17
49529;BME280;35423;37.320;-121.762;2024-02-04T20:30:41;98009.39;;;18.84;38.76
49529;BME280;35423;37.320;-121.762;2024-02-04T20:33:08;98011.46;;;18.77;38.53
49529;BME280;35423;37.320;-121.762;2024-02-04T20:35:37;97989.89;;;19.79;37.92
49529;BME280;35423;37.320;-121.762;2024-02-04T20:38:13;97974.65;;;19.54;36.90
49529;BME280;35423;37.320;-121.762;2024-02-04T20:40:39;97982.83;;;20.02;36.57
49529;BME280;35423;37.320;-121.762;2024-02-04T20:43:06;97980.15;;;19.75;36.64